Página principal
METAR-TAF:

METAR-TAF

Aeroportos :

Aeroporto Internacional do Bahrain

Bahrein, Bahrein

latitude: 26-16N, longitude: 050-39E, altura: 2 m

Observação actual do tempo

O boletim foi feito há 38 minutos, às 06:30 UTC
Vento 8 kt de nor-nordeste, variando entre norte e es-nordeste
Temperatura 25°C
Humidade 50%
Pressão 1018 hPa
Visibilidade 10 km ou mais
sem nuvens abaixo de 1500 metros e sem cumulonimbus

METAR: OBBI 100630Z 02008KT 350V060 CAVOK 25/14 Q1018 NOSIG

Hora: 10:08 (07:08 UTC)

Previsão

O boletim foi feito há 2 horas e 8 minutos, às 05:00 UTC
Previsão válida de 10 às 06 UTC a 11 às 12 UTC
Vento 10 kt de norte
Visibilidade 10 km ou mais
sem nuvens abaixo de 1500 metros e sem cumulonimbus
Tornando-se
de 10 às 20 UTC a 10 às 22 UTC
Vento 13 kt de norte com rajadas de 23 kt
Nuvens dispersasa uma altura de 2500 ft

TAF: OBBI 100500Z 1006/1112 01010KT CAVOK BECMG 1020/1022 35013G23KT SCT025

Observações e previsões do tempo de mais de 4000 aeroportos (mensagens METAR e TAF).

As estações disponíveis são os pontos amarelos e vermelhos sobre o mapa.

Mova o rato sobre o mapa para ver o nome da estação.

Depois clique no ponto para visualizar as observações e previsões meteorológicas.

Para alterar o mapa : clique nos botões verdes com uma cruz preta para aumentar o zoom; no botão verde com uma pitada de zoom; ou nas setas verdes para mapas adjacentes.


METAR-TAF: